Wednesday, May 25, 2016, 5:03 AM EDT

KOFP, Hanover County Municipal

Location: Ashland, VA, United States Lat: 37.7
Local Time: 5:03 AM EDT ( 9:03 GMT) Lon: -77.433
Time Zone: US/Eastern Elev: 203 ft

Show me the last for .
Show Decoded

2016-05-25 03:54 METAR KOFP 250754Z AUTO 00000KT 8SM CLR 14/13 A3012 RMK AO2 SLP199 T01440128 =
2016-05-25 02:54 METAR KOFP 250654Z AUTO 00000KT 9SM CLR 16/13 A3012 RMK AO2 SLP197 T01560133 =
2016-05-25 01:54 METAR KOFP 250554Z AUTO 00000KT 8SM CLR 15/13 A3011 RMK AO2 SLP193 T01500133
                 10244 20150 51005 =
2016-05-25 00:54 METAR KOFP 250454Z AUTO 00000KT 8SM CLR 16/13 A3011 RMK AO2 SLP193 T01560133
                 402830117 =
2016-05-24 23:54 METAR KOFP 250354Z AUTO 00000KT 9SM CLR 16/14 A3010 RMK AO2 SLP192 T01610139 =
2016-05-24 22:54 METAR KOFP 250254Z AUTO 00000KT 10SM CLR 17/13 A3009 RMK AO2 SLP188 T01670133
                 53017 =
2016-05-24 21:54 METAR KOFP 250154Z AUTO 00000KT 10SM CLR 18/14 A3008 RMK AO2 SLP183 T01780144 =
2016-05-24 20:54 METAR KOFP 250054Z AUTO 00000KT 10SM FEW090 FEW110 19/14 A3005 RMK AO2 SLP174
                 T01940144 =
2016-05-24 19:54 METAR KOFP 242354Z AUTO 23003KT 10SM SCT100 25/11 A3004 RMK AO2 SLP171 T02500111
                 10283 20250 53005 =
2016-05-24 18:54 METAR KOFP 242254Z AUTO 26007KT 10SM FEW085 BKN100 27/10 A3003 RMK AO2 SLP167
                 T02720100 =
2016-05-24 17:54 METAR KOFP 242154Z AUTO 26004KT 10SM CLR 28/11 A3002 RMK AO2 SLP164 T02780106 =
2016-05-24 16:54 METAR KOFP 242054Z AUTO VRB06KT 10SM CLR 27/11 A3003 RMK AO2 SLP165 T02720106
                 56006 =
2016-05-24 15:54 METAR KOFP 241954Z AUTO 30007KT 10SM CLR 27/11 A3003 RMK AO2 SLP167 T02720106 =
2016-05-24 14:54 METAR KOFP 241854Z AUTO 29007G15KT 240V330 10SM FEW085 27/11 A3004 RMK AO2
                 SLP169 T02720106 =
2016-05-24 13:54 METAR KOFP 241754Z AUTO 29009KT 10SM CLR 27/10 A3004 RMK AO2 SLP172 T02720100
                 10272 20150 58003 =
2016-05-24 12:54 METAR KOFP 241654Z AUTO 29005KT 10SM CLR 26/11 A3006 RMK AO2 SLP176 T02560106 =
2016-05-24 11:54 METAR KOFP 241554Z AUTO 29003KT 10SM CLR 25/13 A3006 RMK AO2 SLP176 T02500128 =
2016-05-24 10:54 METAR KOFP 241454Z AUTO 29007KT 10SM CLR 23/12 A3006 RMK AO2 SLP176 T02330122
                 51007 =
2016-05-24 09:54 METAR KOFP 241354Z AUTO 29007KT 10SM CLR 21/14 A3005 RMK AO2 SLP175 T02110139 =
2016-05-24 08:54 METAR KOFP 241254Z AUTO 27003KT 10SM CLR 18/13 A3005 RMK AO2 SLP175 T01830133 =
2016-05-24 07:54 METAR KOFP 241154Z AUTO 25004KT 10SM CLR 15/13 A3003 RMK AO2 SLP169 60001 70015
                 T01500128 10150 20117 53012 =
2016-05-24 06:54 METAR KOFP 241054Z AUTO 25003KT 9SM CLR 13/12 A3001 RMK AO2 SLP162 T01330122 =
2016-05-24 05:54 METAR KOFP 240954Z AUTO 00000KT 5SM BR CLR 13/12 A2999 RMK AO2 RAB08E21 SLP156
                 P0001 T01280117 =

Support USWX by starting your Amazon purchase here.